createdAt,value
2019-02-14T00:01:52.539Z,61.96
2019-02-14T00:04:20.371Z,60.97
2019-02-14T00:06:48.336Z,60.07
2019-02-14T00:09:16.599Z,59.83
2019-02-14T00:11:44.494Z,60.17
2019-02-14T00:14:12.364Z,60.41
2019-02-14T00:16:40.221Z,60.23
2019-02-14T00:19:08.127Z,60.50
2019-02-14T00:21:36.019Z,60.84
2019-02-14T00:24:03.887Z,61.18
2019-02-14T00:26:31.725Z,61.52
2019-02-14T00:28:59.639Z,61.73
2019-02-14T00:31:27.492Z,61.74
2019-02-14T00:33:55.386Z,62.16
2019-02-14T00:36:23.274Z,62.36
2019-02-14T00:38:51.158Z,62.20
2019-02-14T00:41:19.008Z,61.67
2019-02-14T00:43:46.917Z,62.49
2019-02-14T00:46:14.992Z,63.67
2019-02-14T00:48:42.819Z,64.18
2019-02-14T00:51:10.695Z,64.30
2019-02-14T00:53:38.811Z,64.29
2019-02-14T00:56:06.624Z,64.57
2019-02-14T00:58:34.490Z,63.34
2019-02-14T01:01:02.600Z,62.97
2019-02-14T01:03:30.438Z,62.94
2019-02-14T01:05:58.390Z,60.60
2019-02-14T01:08:26.278Z,62.33
2019-02-14T01:10:54.155Z,62.60
2019-02-14T01:13:23.079Z,62.70
2019-02-14T01:15:51.394Z,61.40
2019-02-14T01:18:19.228Z,60.21
2019-02-14T01:20:47.072Z,59.29
2019-02-14T01:23:15.247Z,58.99
2019-02-14T01:25:43.116Z,59.74
2019-02-14T01:28:10.948Z,60.23
2019-02-14T01:30:38.823Z,59.78
2019-02-14T01:33:06.683Z,58.34
2019-02-14T01:35:41.781Z,58.59
2019-02-14T01:38:04.599Z,59.02
2019-02-14T01:40:32.473Z,59.60
2019-02-14T01:43:00.350Z,59.32
2019-02-14T01:45:28.254Z,59.42
2019-02-14T01:47:56.049Z,59.92
2019-02-14T01:50:23.880Z,60.15
2019-02-14T01:52:51.728Z,60.22
2019-02-14T01:55:19.649Z,60.54
2019-02-14T01:57:47.504Z,60.54
2019-02-14T02:00:16.673Z,61.01
2019-02-14T02:02:44.516Z,60.95
2019-02-14T02:05:12.407Z,61.27
2019-02-14T02:07:40.602Z,61.31
2019-02-14T02:10:10.398Z,61.62
2019-02-14T02:12:38.396Z,61.51
2019-02-14T02:15:09.358Z,61.56
2019-02-14T02:17:38.120Z,62.74
2019-02-14T02:20:06.942Z,62.95
2019-02-14T02:22:34.878Z,63.03
2019-02-14T02:25:03.860Z,60.58
2019-02-14T02:27:31.690Z,60.00
2019-02-14T02:29:59.560Z,60.71
2019-02-14T02:32:27.476Z,61.15
2019-02-14T02:34:55.307Z,62.19
2019-02-14T02:37:23.153Z,61.70
2019-02-14T02:39:50.978Z,60.92
2019-02-14T02:42:18.819Z,60.94
2019-02-14T02:44:48.564Z,59.54
2019-02-14T02:47:16.583Z,58.44
2019-02-14T02:49:47.236Z,58.38
2019-02-14T02:52:16.912Z,58.28
2019-02-14T02:54:44.754Z,58.01
2019-02-14T02:57:12.608Z,57.82
2019-02-14T02:59:40.475Z,57.94
2019-02-14T03:02:08.585Z,57.84
2019-02-14T03:04:36.395Z,57.70
2019-02-14T03:07:04.423Z,57.20
2019-02-14T03:09:32.355Z,56.80
2019-02-14T03:12:00.190Z,56.93
2019-02-14T03:14:28.031Z,57.21
2019-02-14T03:16:55.896Z,57.78
2019-02-14T03:19:23.692Z,58.38
2019-02-14T03:21:51.548Z,58.71
2019-02-14T03:24:19.356Z,59.49
2019-02-14T03:26:47.223Z,60.67
2019-02-14T03:29:15.386Z,60.23
2019-02-14T03:31:43.252Z,61.65
2019-02-14T03:34:11.174Z,62.77
2019-02-14T03:36:39.078Z,61.59
2019-02-14T03:39:06.919Z,61.81
2019-02-14T03:41:34.789Z,62.15
2019-02-14T03:44:02.687Z,61.36
2019-02-14T03:46:30.567Z,59.03
2019-02-14T03:48:58.377Z,58.43
2019-02-14T03:51:26.247Z,58.36
2019-02-14T03:53:54.136Z,57.20
2019-02-14T03:56:22.076Z,57.01
2019-02-14T03:58:49.902Z,56.94
2019-02-14T04:01:17.748Z,58.06
2019-02-14T04:03:45.595Z,59.22
2019-02-14T04:06:13.406Z,59.96
2019-02-14T04:08:41.315Z,60.31
2019-02-14T04:11:09.152Z,60.77
2019-02-14T04:13:37.006Z,61.08
2019-02-14T04:16:04.873Z,62.38
2019-02-14T04:18:32.749Z,63.34
2019-02-14T04:21:03.288Z,64.62
2019-02-14T04:23:31.152Z,65.45
2019-02-14T04:25:58.975Z,65.76
2019-02-14T04:28:26.843Z,65.70
2019-02-14T04:30:54.676Z,66.07
2019-02-14T04:33:22.529Z,66.05
2019-02-14T04:35:50.338Z,65.89
2019-02-14T04:38:18.530Z,67.47
2019-02-14T04:40:46.384Z,67.75
2019-02-14T04:43:14.213Z,68.00
2019-02-14T04:45:42.067Z,68.49
2019-02-14T04:48:09.929Z,68.87
2019-02-14T04:50:37.802Z,68.81
2019-02-14T04:53:05.688Z,68.29
2019-02-14T04:55:36.080Z,68.90
2019-02-14T04:58:03.959Z,69.07
2019-02-14T05:00:31.843Z,68.87
2019-02-14T05:02:59.652Z,68.01
2019-02-14T05:05:27.488Z,66.56
2019-02-14T05:07:55.464Z,64.95
2019-02-14T05:10:23.326Z,63.12
2019-02-14T05:12:51.169Z,63.68
2019-02-14T05:15:19.090Z,62.03
2019-02-14T05:17:46.946Z,60.35
2019-02-14T05:20:14.755Z,59.42
2019-02-14T05:22:42.643Z,59.87
2019-02-14T05:25:10.770Z,59.75
2019-02-14T05:27:38.586Z,60.14
2019-02-14T05:30:09.226Z,60.76
2019-02-14T05:32:37.080Z,61.22
2019-02-14T05:35:05.435Z,61.04
2019-02-14T05:37:33.377Z,61.05
2019-02-14T05:40:01.255Z,61.44
2019-02-14T05:42:29.082Z,62.06
2019-02-14T05:44:56.950Z,62.00
2019-02-14T05:47:24.809Z,61.06
2019-02-14T05:49:54.431Z,60.85
2019-02-14T05:52:22.356Z,59.44
2019-02-14T05:54:50.192Z,59.62
2019-02-14T05:57:18.062Z,58.86
2019-02-14T05:59:45.898Z,58.34
2019-02-14T06:02:15.635Z,58.28
2019-02-14T06:04:43.501Z,57.64
2019-02-14T06:07:11.387Z,57.87
2019-02-14T06:09:39.227Z,57.95
2019-02-14T06:12:07.086Z,58.05
2019-02-14T06:14:35.191Z,58.37
2019-02-14T06:17:05.444Z,57.78
2019-02-14T06:19:33.307Z,57.26
2019-02-14T06:22:01.159Z,57.35
2019-02-14T06:24:29.071Z,57.72
2019-02-14T06:26:56.891Z,58.13
2019-02-14T06:29:24.740Z,58.16
2019-02-14T06:31:52.539Z,58.06
2019-02-14T06:34:20.437Z,58.43
2019-02-14T06:36:48.296Z,58.77
2019-02-14T06:39:16.175Z,59.18
2019-02-14T06:41:44.013Z,59.12
2019-02-14T06:44:11.891Z,59.39
2019-02-14T06:46:39.716Z,60.77
2019-02-14T06:49:07.620Z,60.95
2019-02-14T06:51:35.462Z,62.07
2019-02-14T06:54:03.267Z,62.29
2019-02-14T06:56:31.115Z,61.21
2019-02-14T06:58:59.014Z,60.61
2019-02-14T07:01:26.891Z,60.26
2019-02-14T07:03:54.755Z,59.71
2019-02-14T07:06:22.596Z,60.33
2019-02-14T07:08:50.427Z,61.24
2019-02-14T07:11:18.266Z,59.36
2019-02-14T07:13:46.117Z,59.76
2019-02-14T07:16:13.948Z,59.17
2019-02-14T07:18:41.811Z,58.23
2019-02-14T07:21:09.661Z,57.59
2019-02-14T07:23:37.491Z,57.84
2019-02-14T07:26:05.389Z,58.03
2019-02-14T07:28:34.479Z,58.30
2019-02-14T07:31:02.463Z,58.26
2019-02-14T07:33:30.433Z,58.83
2019-02-14T07:35:58.376Z,58.43
2019-02-14T07:38:26.293Z,57.55
2019-02-14T07:40:54.104Z,55.90
2019-02-14T07:43:21.977Z,54.62
2019-02-14T07:45:49.831Z,52.77
2019-02-14T07:48:17.749Z,51.04
2019-02-14T07:50:45.623Z,49.50
2019-02-14T07:53:13.466Z,48.49
2019-02-14T07:55:41.293Z,47.27
2019-02-14T07:58:09.243Z,46.65
2019-02-14T08:00:37.084Z,46.17
2019-02-14T08:03:04.936Z,47.51
2019-02-14T08:05:32.859Z,46.18
2019-02-14T08:08:01.178Z,45.83
2019-02-14T08:10:29.015Z,45.52
2019-02-14T08:12:56.889Z,45.19
2019-02-14T08:15:24.773Z,46.49
2019-02-14T08:17:52.633Z,45.60
2019-02-14T08:20:20.537Z,43.28
2019-02-14T08:22:48.367Z,41.21
2019-02-14T08:25:16.495Z,38.76
2019-02-14T08:27:44.345Z,38.35
2019-02-14T08:30:13.894Z,36.18
2019-02-14T08:32:41.848Z,33.47
2019-02-14T08:35:09.739Z,32.04
2019-02-14T08:37:45.093Z,31.97
2019-02-14T08:40:11.325Z,30.35
2019-02-14T08:42:39.211Z,28.99
2019-02-14T08:45:08.785Z,27.54
2019-02-14T08:47:36.620Z,27.04
2019-02-14T08:50:05.067Z,26.19
2019-02-14T08:52:33.208Z,23.66
2019-02-14T08:55:01.134Z,23.57
2019-02-14T08:57:29.008Z,23.98
2019-02-14T08:59:56.879Z,24.68
2019-02-14T09:02:27.280Z,23.18
2019-02-14T09:04:55.440Z,23.20
2019-02-14T09:07:23.329Z,22.45
2019-02-14T09:09:51.189Z,20.13
2019-02-14T09:12:19.104Z,21.88
2019-02-14T09:14:46.958Z,21.51
2019-02-14T09:17:14.843Z,20.19
2019-02-14T09:19:42.671Z,19.92
2019-02-14T09:22:10.581Z,19.88
2019-02-14T09:24:38.460Z,19.34
2019-02-14T09:27:06.444Z,19.03
2019-02-14T09:29:34.269Z,17.69
2019-02-14T09:32:02.196Z,17.00
2019-02-14T09:34:30.111Z,16.30
2019-02-14T09:36:57.958Z,15.41
2019-02-14T09:39:25.875Z,15.22
2019-02-14T09:41:53.805Z,14.49
2019-02-14T09:44:21.671Z,14.17
2019-02-14T09:46:49.568Z,13.43
2019-02-14T09:49:17.438Z,11.57
2019-02-14T09:51:45.322Z,12.73
2019-02-14T09:54:13.168Z,11.94
2019-02-14T09:56:41.098Z,11.70
2019-02-14T09:59:09.022Z,11.03
2019-02-14T10:01:36.878Z,9.12
2019-02-14T10:04:04.886Z,10.21
2019-02-14T10:06:36.675Z,10.88
2019-02-14T10:09:05.038Z,10.84
2019-02-14T10:11:32.908Z,10.76
2019-02-14T10:14:00.773Z,11.10
2019-02-14T10:16:28.744Z,10.50
2019-02-14T10:18:56.732Z,9.82
2019-02-14T10:21:24.616Z,9.68
2019-02-14T10:23:52.587Z,10.55
2019-02-14T10:26:20.538Z,11.04
2019-02-14T10:28:48.431Z,11.73
2019-02-14T10:31:16.331Z,11.78
2019-02-14T10:33:44.245Z,12.66
2019-02-14T10:36:12.156Z,13.06
2019-02-14T10:38:40.028Z,12.88
2019-02-14T10:41:07.887Z,12.98
2019-02-14T10:43:35.710Z,13.25
2019-02-14T10:46:03.622Z,13.59
2019-02-14T10:48:31.458Z,13.56
2019-02-14T10:50:59.431Z,12.97
2019-02-14T10:53:27.334Z,13.09
2019-02-14T10:55:55.258Z,12.93
2019-02-14T10:58:23.122Z,12.67
2019-02-14T11:00:50.974Z,12.53
2019-02-14T11:03:19.000Z,12.17
2019-02-14T11:05:46.871Z,13.08
2019-02-14T11:08:14.778Z,12.31
2019-02-14T11:10:42.670Z,13.44
2019-02-14T11:13:10.526Z,14.28
2019-02-14T11:15:38.465Z,14.05
2019-02-14T11:18:06.457Z,15.64
2019-02-14T11:20:34.427Z,18.43
2019-02-14T11:23:02.632Z,19.45
2019-02-14T11:25:32.247Z,19.75
2019-02-14T11:28:00.147Z,19.71
2019-02-14T11:30:28.045Z,22.20
2019-02-14T11:32:55.934Z,22.81
2019-02-14T11:35:23.835Z,23.41
2019-02-14T11:37:51.681Z,22.66
2019-02-14T11:40:19.575Z,23.26
2019-02-14T11:42:47.481Z,23.59
2019-02-14T11:45:17.679Z,24.50
2019-02-14T11:47:45.542Z,26.04
2019-02-14T11:50:13.417Z,25.71
2019-02-14T11:52:41.467Z,26.19
2019-02-14T11:55:09.528Z,26.75
2019-02-14T11:57:37.423Z,29.11
2019-02-14T12:00:09.758Z,28.31
2019-02-14T12:02:38.007Z,29.53
2019-02-14T12:05:06.496Z,30.35
2019-02-14T12:07:34.360Z,28.47
2019-02-14T12:10:02.295Z,30.40
2019-02-14T12:12:30.501Z,29.41
2019-02-14T12:14:58.374Z,29.58
2019-02-14T12:17:26.352Z,29.71
2019-02-14T12:19:54.214Z,29.65
2019-02-14T12:22:22.136Z,30.33
2019-02-14T12:24:50.032Z,30.49
2019-02-14T12:27:17.920Z,31.78
2019-02-14T12:29:45.770Z,31.00
2019-02-14T12:32:13.685Z,30.39
2019-02-14T12:34:41.568Z,33.75
2019-02-14T12:37:09.471Z,32.16
2019-02-14T12:39:37.394Z,32.04
2019-02-14T12:42:05.345Z,33.54
2019-02-14T12:44:33.267Z,33.21
2019-02-14T12:47:01.280Z,32.99
2019-02-14T12:49:29.172Z,33.08
2019-02-14T12:51:57.103Z,33.02
2019-02-14T12:54:25.079Z,34.99
2019-02-14T12:56:53.236Z,34.21
2019-02-14T12:59:21.148Z,33.89
2019-02-14T13:01:49.025Z,34.18
2019-02-14T13:04:17.129Z,34.24
2019-02-14T13:06:45.077Z,34.49
2019-02-14T13:09:20.055Z,33.52
2019-02-14T13:11:44.411Z,34.10
2019-02-14T13:14:12.287Z,34.23
2019-02-14T13:16:40.175Z,34.07
2019-02-14T13:19:08.060Z,34.32
2019-02-14T13:21:35.944Z,34.99
2019-02-14T13:24:03.825Z,35.21
2019-02-14T13:26:31.792Z,34.32
2019-02-14T13:28:59.648Z,34.36
2019-02-14T13:31:31.973Z,36.22
2019-02-14T13:33:57.808Z,34.14
2019-02-14T13:36:25.676Z,34.37
2019-02-14T13:38:53.588Z,33.90
2019-02-14T13:41:30.680Z,35.28
2019-02-14T13:43:51.227Z,34.55
2019-02-14T13:46:19.323Z,36.03
2019-02-14T13:48:47.192Z,34.87
2019-02-14T13:51:15.086Z,34.80
2019-02-14T13:53:43.009Z,35.57
2019-02-14T13:56:10.873Z,34.60
2019-02-14T13:58:38.773Z,35.54
2019-02-14T14:01:06.808Z,35.23
2019-02-14T14:03:35.048Z,34.95
2019-02-14T14:06:02.975Z,35.28
2019-02-14T14:08:30.847Z,35.26
2019-02-14T14:10:58.825Z,35.39
2019-02-14T14:13:26.714Z,34.92
2019-02-14T14:15:54.869Z,33.16
2019-02-14T14:18:22.755Z,32.55
2019-02-14T14:20:50.701Z,32.22
2019-02-14T14:23:19.932Z,31.90
2019-02-14T14:25:47.948Z,31.76
2019-02-14T14:28:15.860Z,33.25
2019-02-14T14:30:43.737Z,32.55
2019-02-14T14:33:11.612Z,32.66
2019-02-14T14:35:39.489Z,32.28
2019-02-14T14:38:07.383Z,32.74
2019-02-14T14:40:35.307Z,33.13
2019-02-14T14:43:32.076Z,32.36
2019-02-14T14:46:28.641Z,31.18
2019-02-14T14:48:56.548Z,33.48
2019-02-14T14:51:24.611Z,33.37
2019-02-14T14:53:52.439Z,33.21
2019-02-14T14:56:20.367Z,33.52
2019-02-14T14:58:52.854Z,33.78
2019-02-14T15:01:20.744Z,33.30
2019-02-14T15:03:48.663Z,33.29
2019-02-14T15:06:16.530Z,33.81
2019-02-14T15:08:44.520Z,32.62
2019-02-14T15:11:12.429Z,32.28
2019-02-14T15:13:40.326Z,32.35
2019-02-14T15:16:08.254Z,33.70
2019-02-14T15:18:36.179Z,33.92
2019-02-14T15:21:04.078Z,33.35
2019-02-14T15:23:32.024Z,33.06
2019-02-14T15:25:59.913Z,32.88
2019-02-14T15:28:27.784Z,32.87
2019-02-14T15:30:55.696Z,32.79
2019-02-14T15:33:23.626Z,33.60
2019-02-14T15:35:51.536Z,33.58
2019-02-14T15:38:19.391Z,33.12
2019-02-14T15:40:47.309Z,33.41
2019-02-14T15:43:15.145Z,33.01
2019-02-14T15:45:43.049Z,34.43
2019-02-14T15:48:12.988Z,33.75
2019-02-14T15:50:41.127Z,34.19
2019-02-14T15:53:09.012Z,34.74
2019-02-14T15:55:38.841Z,35.40
2019-02-14T15:58:09.078Z,35.91
2019-02-14T16:00:36.585Z,35.56
2019-02-14T16:03:04.510Z,36.12
2019-02-14T16:05:34.874Z,36.05
2019-02-14T16:08:04.736Z,36.61
2019-02-14T16:10:34.651Z,34.97
2019-02-14T16:13:02.641Z,35.19
2019-02-14T16:15:31.088Z,34.71
2019-02-14T16:18:01.648Z,34.31
2019-02-14T16:20:29.749Z,36.24
2019-02-14T16:22:57.698Z,36.18
2019-02-14T16:25:26.391Z,35.98
2019-02-14T16:27:55.563Z,36.16
2019-02-14T16:30:23.492Z,36.75
2019-02-14T16:32:51.412Z,37.69
2019-02-14T16:35:19.454Z,38.64
2019-02-14T16:37:49.957Z,38.79
2019-02-14T16:40:17.227Z,39.54
2019-02-14T16:42:45.177Z,39.13
2019-02-14T16:45:13.080Z,40.65
2019-02-14T16:47:40.993Z,41.13
2019-02-14T16:50:09.011Z,41.31
2019-02-14T16:52:36.942Z,41.87
2019-02-14T16:55:05.106Z,42.97
2019-02-14T16:57:33.082Z,44.12
2019-02-14T17:00:00.912Z,43.88
2019-02-14T17:02:28.915Z,44.66
2019-02-14T17:04:57.898Z,45.81
2019-02-14T17:07:25.829Z,45.99
2019-02-14T17:09:56.290Z,46.92
2019-02-14T17:12:24.202Z,47.65
2019-02-14T17:14:52.105Z,46.31
2019-02-14T17:17:27.722Z,46.13
2019-02-14T17:19:50.183Z,45.62
2019-02-14T17:22:18.134Z,45.77
2019-02-14T17:24:46.058Z,45.06
2019-02-14T17:27:14.106Z,45.73
2019-02-14T17:29:42.062Z,45.88
2019-02-14T17:32:09.975Z,46.65
2019-02-14T17:34:37.883Z,47.65
2019-02-14T17:37:05.772Z,48.56
2019-02-14T17:39:33.672Z,49.16
2019-02-14T17:42:01.577Z,48.85
2019-02-14T17:44:29.454Z,49.61
2019-02-14T17:46:57.413Z,50.14
2019-02-14T17:49:25.297Z,50.75
2019-02-14T17:51:53.143Z,51.03
2019-02-14T17:54:21.089Z,51.26
2019-02-14T17:56:48.969Z,51.08
2019-02-14T17:59:16.878Z,52.11
2019-02-14T18:01:44.803Z,51.48
2019-02-14T18:04:12.749Z,53.41
2019-02-14T18:06:40.647Z,52.97
2019-02-14T18:09:08.910Z,52.80
2019-02-14T18:11:36.841Z,51.50
2019-02-14T18:14:04.734Z,51.07
2019-02-14T18:16:32.678Z,52.00
2019-02-14T18:19:01.080Z,53.12
2019-02-14T18:21:28.990Z,52.10
2019-02-14T18:23:57.052Z,52.22
2019-02-14T18:26:25.354Z,52.29
2019-02-14T18:28:53.283Z,52.79
2019-02-14T18:31:21.205Z,53.51
2019-02-14T18:33:49.157Z,54.02
2019-02-14T18:36:17.069Z,54.39
2019-02-14T18:38:45.265Z,54.55
2019-02-14T18:41:13.175Z,54.98
2019-02-14T18:43:41.035Z,54.82
2019-02-14T18:46:08.962Z,55.32
2019-02-14T18:48:36.934Z,55.73
2019-02-14T18:51:05.026Z,55.55
2019-02-14T18:53:33.033Z,56.31
2019-02-14T18:56:04.297Z,56.03
2019-02-14T18:58:32.163Z,55.72
2019-02-14T19:01:00.095Z,55.62
2019-02-14T19:03:28.015Z,55.66
2019-02-14T19:05:55.912Z,54.96
2019-02-14T19:08:23.811Z,55.18
2019-02-14T19:10:52.695Z,55.73
2019-02-14T19:13:20.874Z,55.32
2019-02-14T19:15:48.797Z,55.33
2019-02-14T19:18:16.680Z,55.87
2019-02-14T19:20:44.681Z,55.90
2019-02-14T19:23:23.294Z,56.19
2019-02-14T19:25:42.529Z,56.59
2019-02-14T19:28:10.452Z,55.97
2019-02-14T19:30:38.387Z,55.73
2019-02-14T19:33:06.402Z,55.54
2019-02-14T19:35:34.275Z,56.19
2019-02-14T19:38:02.468Z,55.75
2019-02-14T19:40:30.371Z,55.71
2019-02-14T19:42:58.351Z,55.27
2019-02-14T19:45:36.051Z,54.36
2019-02-14T19:47:56.097Z,53.18
2019-02-14T19:50:24.013Z,52.89
2019-02-14T19:52:52.046Z,52.85
2019-02-14T19:55:19.980Z,52.54
2019-02-14T19:57:47.966Z,51.75
2019-02-14T20:00:15.988Z,51.54
2019-02-14T20:02:43.923Z,51.12
2019-02-14T20:05:11.848Z,51.38
2019-02-14T20:07:39.879Z,51.02
2019-02-14T20:10:09.676Z,51.21
2019-02-14T20:12:37.603Z,51.27
2019-02-14T20:15:09.016Z,51.08
2019-02-14T20:17:36.944Z,51.45
2019-02-14T20:20:06.306Z,51.74
2019-02-14T20:22:34.223Z,52.16
2019-02-14T20:25:03.495Z,52.36
2019-02-14T20:27:31.389Z,52.98
2019-02-14T20:29:59.267Z,53.08
2019-02-14T20:32:27.221Z,52.21
2019-02-14T20:34:55.150Z,51.25
2019-02-14T20:37:23.033Z,51.30
2019-02-14T20:39:50.986Z,52.14
2019-02-14T20:42:18.885Z,52.76
2019-02-14T20:44:47.045Z,53.10
2019-02-14T20:47:14.936Z,53.27
2019-02-14T20:49:43.247Z,53.08
2019-02-14T20:52:11.199Z,53.05
2019-02-14T20:54:39.126Z,52.85
2019-02-14T20:57:07.016Z,53.11
2019-02-14T20:59:35.011Z,53.95
2019-02-14T21:02:04.084Z,54.28
2019-02-14T21:04:32.134Z,54.55
2019-02-14T21:07:00.034Z,54.85
2019-02-14T21:09:27.985Z,54.98
2019-02-14T21:11:55.882Z,55.05
2019-02-14T21:14:23.797Z,55.22
2019-02-14T21:16:51.727Z,55.48
2019-02-14T21:19:19.614Z,55.47
2019-02-14T21:21:47.515Z,55.39
2019-02-14T21:24:15.731Z,55.52
2019-02-14T21:26:43.726Z,55.71
2019-02-14T21:29:11.834Z,56.11
2019-02-14T21:31:39.760Z,56.18
2019-02-14T21:34:07.655Z,56.51
2019-02-14T21:36:35.600Z,56.83
2019-02-14T21:39:04.618Z,57.22
2019-02-14T21:41:32.594Z,57.91
2019-02-14T21:44:00.682Z,57.75
2019-02-14T21:46:28.883Z,57.43
2019-02-14T21:48:56.732Z,57.72
2019-02-14T21:51:24.790Z,57.74
2019-02-14T21:53:52.672Z,57.79
2019-02-14T21:56:20.614Z,57.73
2019-02-14T21:58:48.752Z,57.97
2019-02-14T22:01:18.861Z,57.92
2019-02-14T22:03:47.054Z,58.06
2019-02-14T22:06:14.895Z,58.42
2019-02-14T22:08:43.031Z,58.64
2019-02-14T22:11:10.925Z,59.07
2019-02-14T22:13:39.084Z,59.30
2019-02-14T22:16:07.111Z,59.56
2019-02-14T22:18:35.035Z,59.89
2019-02-14T22:21:03.010Z,60.03
2019-02-14T22:23:31.097Z,60.18
2019-02-14T22:25:59.047Z,60.35
2019-02-14T22:28:26.955Z,60.51
2019-02-14T22:30:54.915Z,60.94
2019-02-14T22:33:22.818Z,61.28
2019-02-14T22:35:50.734Z,61.50
2019-02-14T22:38:18.598Z,61.06
2019-02-14T22:40:47.438Z,60.58
2019-02-14T22:43:15.410Z,61.38
2019-02-14T22:45:43.298Z,61.48
2019-02-14T22:48:11.241Z,61.19
2019-02-14T22:50:39.129Z,60.99
2019-02-14T22:53:06.991Z,60.22
2019-02-14T22:55:34.885Z,59.85
2019-02-14T22:58:02.740Z,59.49
2019-02-14T23:00:46.773Z,58.63
2019-02-14T23:03:14.995Z,58.91
2019-02-14T23:05:43.050Z,59.50
2019-02-14T23:08:10.835Z,59.62
2019-02-14T23:10:39.194Z,60.13
2019-02-14T23:13:07.056Z,60.67
2019-02-14T23:15:34.846Z,60.50
2019-02-14T23:18:02.976Z,60.43
2019-02-14T23:20:30.776Z,60.11
2019-02-14T23:22:58.612Z,59.66
2019-02-14T23:25:26.406Z,59.49
2019-02-14T23:27:54.229Z,59.45
2019-02-14T23:30:22.040Z,59.72
2019-02-14T23:32:49.856Z,59.46
2019-02-14T23:35:17.646Z,58.90
2019-02-14T23:37:45.444Z,58.82
2019-02-14T23:40:13.254Z,59.25
2019-02-14T23:42:41.065Z,58.59
2019-02-14T23:45:09.209Z,57.49
2019-02-14T23:47:37.021Z,57.27
2019-02-14T23:50:04.887Z,56.39
2019-02-14T23:52:32.697Z,55.60
2019-02-14T23:55:00.491Z,53.83
2019-02-14T23:57:28.303Z,52.14
2019-02-14T23:59:56.089Z,51.06
